Time;durP1;ratioP1;P1;durP2;ratioP2;P2;SDS_P1;SDS_P2;PMS_P1;PMS_P2;Temp;Humidity;BMP_temperature;BMP_pressure;BME280_temperature;BME280_humidity;BME280_pressure;Samples;Min_cycle;Max_cycle;Signal;HPM_P1;HPM_P2
2021/01/09 00:01:57;;;;;;;21.90;8.70;;;0.60;99.90;;;;;;5073996;28;20281;-64
2021/01/09 00:04:24;;;;;;;15.80;8.47;;;0.50;99.90;;;;;;5073815;28;20256;-63
2021/01/09 00:06:50;;;;;;;15.77;8.20;;;0.50;99.90;;;;;;5073461;28;20274;-65
2021/01/09 00:09:17;;;;;;;13.13;8.20;;;0.60;99.90;;;;;;5073601;28;20271;-62
2021/01/09 00:11:43;;;;;;;15.77;8.27;;;0.60;99.90;;;;;;5073520;28;20260;-61
2021/01/09 00:14:10;;;;;;;18.17;8.93;;;0.60;99.90;;;;;;5073360;28;20187;-62
2021/01/09 00:16:37;;;;;;;15.27;8.50;;;0.60;99.90;;;;;;5073294;28;20308;-63
2021/01/09 00:19:05;;;;;;;13.83;8.20;;;0.60;99.90;;;;;;5073310;28;20230;-62
2021/01/09 00:21:36;;;;;;;15.03;8.23;;;0.60;99.90;;;;;;5073330;28;20231;-64
2021/01/09 00:24:04;;;;;;;15.60;8.77;;;0.60;99.90;;;;;;5073417;28;20226;-63
2021/01/09 00:26:31;;;;;;;14.97;8.13;;;0.60;99.90;;;;;;5072919;28;20226;-63
2021/01/09 00:28:57;;;;;;;15.87;8.17;;;0.60;99.90;;;;;;5073316;28;20345;-61
2021/01/09 00:31:23;;;;;;;12.63;7.37;;;0.60;99.90;;;;;;5072571;28;20286;-62
2021/01/09 00:33:50;;;;;;;15.83;8.70;;;0.60;99.90;;;;;;5073408;28;20277;-62
2021/01/09 00:36:17;;;;;;;16.53;8.70;;;0.60;99.90;;;;;;5072698;28;20254;-62
2021/01/09 00:38:44;;;;;;;12.10;7.23;;;0.60;99.90;;;;;;5073080;28;20234;-63
2021/01/09 00:41:10;;;;;;;15.73;8.10;;;0.60;99.90;;;;;;5072960;28;20195;-63
2021/01/09 00:43:37;;;;;;;15.50;8.43;;;0.60;99.90;;;;;;5072538;28;20191;-62
2021/01/09 00:46:03;;;;;;;15.63;7.77;;;0.60;99.90;;;;;;5073041;28;20270;-63
2021/01/09 00:48:30;;;;;;;14.70;8.10;;;0.60;99.90;;;;;;5072738;28;20581;-63
2021/01/09 00:50:56;;;;;;;15.07;7.87;;;0.60;99.90;;;;;;5073041;28;20251;-64
2021/01/09 00:53:23;;;;;;;15.80;8.33;;;0.70;99.90;;;;;;5076887;28;20220;-66
2021/01/09 00:55:50;;;;;;;15.87;8.63;;;0.60;99.90;;;;;;5086840;28;20290;-62
2021/01/09 00:58:17;;;;;;;15.83;7.43;;;0.60;99.90;;;;;;5072640;28;20700;-63
2021/01/09 01:00:43;;;;;;;12.50;7.67;;;0.60;99.90;;;;;;5072619;28;20211;-62
2021/01/09 01:03:10;;;;;;;13.70;7.30;;;0.50;99.90;;;;;;5072930;28;20218;-64
2021/01/09 01:05:36;;;;;;;14.93;8.23;;;0.60;99.90;;;;;;5072102;28;20198;-63
2021/01/09 01:08:02;;;;;;;14.53;7.70;;;0.60;99.90;;;;;;5072660;28;20218;-63
2021/01/09 01:10:30;;;;;;;14.57;7.70;;;0.60;99.90;;;;;;5072923;28;20616;-62
2021/01/09 01:12:56;;;;;;;16.20;7.33;;;0.60;99.90;;;;;;5071977;28;20290;-63
2021/01/09 01:15:22;;;;;;;13.53;7.77;;;0.60;99.90;;;;;;5072126;28;20717;-62
2021/01/09 01:17:49;;;;;;;12.83;7.43;;;0.60;99.90;;;;;;5072135;28;20315;-62
2021/01/09 01:20:16;;;;;;;16.13;7.40;;;0.60;99.90;;;;;;5071751;28;20627;-63
2021/01/09 01:22:45;;;;;;;12.07;6.57;;;0.60;99.90;;;;;;5072313;28;20281;-63
2021/01/09 01:25:12;;;;;;;12.07;7.03;;;0.60;99.90;;;;;;5072512;28;20198;-62
2021/01/09 01:27:40;;;;;;;10.90;6.70;;;0.70;99.90;;;;;;5072191;28;20222;-62
2021/01/09 01:30:08;;;;;;;15.03;8.87;;;0.60;99.90;;;;;;5071407;28;20732;-60
2021/01/09 01:32:34;;;;;;;23.20;11.30;;;0.60;99.90;;;;;;5072456;28;20234;-63
2021/01/09 01:35:01;;;;;;;24.33;13.53;;;0.60;99.90;;;;;;5072358;28;20241;-62
2021/01/09 01:37:28;;;;;;;21.47;10.57;;;0.60;99.90;;;;;;5072107;28;20245;-64
2021/01/09 01:39:54;;;;;;;24.87;11.17;;;0.60;99.90;;;;;;5071970;28;20648;-64
2021/01/09 01:42:21;;;;;;;19.37;9.57;;;0.60;99.90;;;;;;5071719;28;20214;-63
2021/01/09 01:44:48;;;;;;;21.60;9.73;;;0.60;99.90;;;;;;5072120;28;20275;-61
2021/01/09 01:47:17;;;;;;;15.10;8.57;;;0.60;99.90;;;;;;5071721;28;20210;-64
2021/01/09 01:49:45;;;;;;;14.93;8.70;;;0.60;99.90;;;;;;5072090;28;20191;-63
2021/01/09 01:52:13;;;;;;;14.23;7.93;;;0.60;99.90;;;;;;5032038;28;20203;-63
2021/01/09 01:54:40;;;;;;;14.33;6.60;;;0.60;99.90;;;;;;5032041;28;20224;-63
2021/01/09 01:57:08;;;;;;;12.50;7.10;;;0.60;99.90;;;;;;5031693;28;20311;-61
2021/01/09 01:59:35;;;;;;;12.20;7.03;;;0.60;99.90;;;;;;5031765;28;20196;-64
2021/01/09 02:02:04;;;;;;;13.67;7.47;;;0.60;99.90;;;;;;5031820;28;20224;-62
2021/01/09 02:04:31;;;;;;;11.87;7.00;;;0.60;99.90;;;;;;5031633;28;20251;-61
2021/01/09 02:07:00;;;;;;;14.10;7.73;;;0.60;99.90;;;;;;5032009;28;20301;-63
2021/01/09 02:09:30;;;;;;;12.83;7.60;;;0.60;99.90;;;;;;5031981;28;20271;-61
2021/01/09 02:12:04;;;;;;;13.03;7.37;;;0.60;99.90;;;;;;5032201;28;20227;-62
2021/01/09 02:14:38;;;;;;;12.07;7.27;;;0.60;99.90;;;;;;5031235;28;20211;-65
2021/01/09 02:17:07;;;;;;;12.13;7.00;;;0.60;99.90;;;;;;5032278;28;20219;-61
2021/01/09 02:19:37;;;;;;;10.93;6.83;;;0.60;99.90;;;;;;5031946;28;20619;-65
2021/01/09 02:22:05;;;;;;;11.70;6.90;;;0.50;99.90;;;;;;5031384;28;20251;-64
2021/01/09 02:24:32;;;;;;;14.13;7.20;;;0.50;99.90;;;;;;5031354;28;20241;-64
2021/01/09 02:26:59;;;;;;;10.43;5.60;;;0.50;99.90;;;;;;5031748;28;20287;-63
2021/01/09 02:29:29;;;;;;;11.00;6.00;;;0.50;99.90;;;;;;5031279;28;20301;-62
2021/01/09 02:31:59;;;;;;;11.90;6.93;;;0.50;99.90;;;;;;5031619;28;20229;-62
2021/01/09 02:34:30;;;;;;;12.53;7.00;;;0.60;99.90;;;;;;5031275;28;20627;-63
2021/01/09 02:36:58;;;;;;;13.97;7.03;;;0.50;99.90;;;;;;5031871;28;20340;-64
2021/01/09 02:39:25;;;;;;;12.60;7.20;;;0.50;99.90;;;;;;5031594;28;20180;-63
2021/01/09 02:41:54;;;;;;;14.30;6.57;;;0.50;99.90;;;;;;5034043;28;20233;-66
2021/01/09 02:44:21;;;;;;;13.40;6.90;;;0.50;99.90;;;;;;5034872;28;20561;-63
2021/01/09 02:46:47;;;;;;;14.13;7.40;;;0.50;99.90;;;;;;5034929;28;20290;-65
2021/01/09 02:49:14;;;;;;;12.53;5.33;;;0.50;99.90;;;;;;5035426;28;20719;-62
2021/01/09 02:51:40;;;;;;;12.60;6.90;;;0.50;99.90;;;;;;5066568;28;20622;-62
2021/01/09 02:54:07;;;;;;;13.23;7.60;;;0.50;99.90;;;;;;5075354;28;20271;-62
2021/01/09 02:56:33;;;;;;;11.70;6.73;;;0.50;99.90;;;;;;5074757;28;20225;-62
2021/01/09 02:59:00;;;;;;;15.53;6.93;;;0.50;99.90;;;;;;5074846;28;20285;-64
2021/01/09 03:01:27;;;;;;;12.37;6.23;;;0.50;99.90;;;;;;5075141;28;20234;-61
2021/01/09 03:03:54;;;;;;;12.43;7.10;;;0.50;99.90;;;;;;5075087;28;20195;-64
2021/01/09 03:06:20;;;;;;;14.47;6.80;;;0.50;99.90;;;;;;5075195;28;20289;-62
2021/01/09 03:08:47;;;;;;;14.77;7.47;;;0.50;99.90;;;;;;5074580;28;20272;-62
2021/01/09 03:11:14;;;;;;;15.17;7.27;;;0.50;99.90;;;;;;5073944;28;20263;-63
2021/01/09 03:13:41;;;;;;;12.73;7.33;;;0.50;99.90;;;;;;5074834;28;20686;-63
2021/01/09 03:16:08;;;;;;;15.93;7.10;;;0.50;99.90;;;;;;5074281;28;20297;-64
2021/01/09 03:18:35;;;;;;;11.97;6.83;;;0.50;99.90;;;;;;5074534;28;20282;-64
2021/01/09 03:21:02;;;;;;;13.17;6.67;;;0.50;99.90;;;;;;5074418;28;20226;-62
2021/01/09 03:23:28;;;;;;;12.93;7.27;;;0.50;99.90;;;;;;5074267;28;20202;-64
2021/01/09 03:25:55;;;;;;;10.70;6.77;;;0.50;99.90;;;;;;5074555;28;20663;-62
2021/01/09 03:28:22;;;;;;;11.90;7.27;;;0.50;99.90;;;;;;5074537;28;20233;-62
2021/01/09 03:30:48;;;;;;;12.97;7.30;;;0.40;99.90;;;;;;5074784;28;20546;-62
2021/01/09 03:33:16;;;;;;;11.77;7.03;;;0.40;99.90;;;;;;5074044;28;20657;-64
2021/01/09 03:35:42;;;;;;;11.57;6.90;;;0.50;99.90;;;;;;5073979;28;20230;-64
2021/01/09 03:38:09;;;;;;;14.43;6.67;;;0.40;99.90;;;;;;5074017;28;20190;-63
2021/01/09 03:40:35;;;;;;;10.13;6.50;;;0.50;99.90;;;;;;5074119;28;20566;-63
2021/01/09 03:43:02;;;;;;;12.53;6.77;;;0.40;99.90;;;;;;5073838;28;20286;-65
2021/01/09 03:45:29;;;;;;;13.10;6.67;;;0.50;99.90;;;;;;5073841;28;20198;-63
2021/01/09 03:47:55;;;;;;;13.70;7.93;;;0.50;99.90;;;;;;5073310;28;20274;-62
2021/01/09 03:50:23;;;;;;;12.03;6.80;;;0.50;99.90;;;;;;5074310;28;20276;-62
2021/01/09 03:52:49;;;;;;;12.97;7.10;;;0.40;99.90;;;;;;5073415;28;20261;-62
2021/01/09 03:55:16;;;;;;;12.60;6.33;;;0.50;99.90;;;;;;5075063;28;20282;-62
2021/01/09 03:57:42;;;;;;;13.97;7.60;;;0.40;99.90;;;;;;5074275;28;20313;-63
2021/01/09 04:00:09;;;;;;;10.40;6.90;;;0.40;99.90;;;;;;5074610;28;20199;-61
2021/01/09 04:02:36;;;;;;;11.50;6.83;;;0.40;99.90;;;;;;5074716;28;20199;-63
2021/01/09 04:05:03;;;;;;;10.77;6.70;;;0.40;99.90;;;;;;5074140;28;20592;-63
2021/01/09 04:07:30;;;;;;;12.03;5.77;;;0.50;99.90;;;;;;5073864;28;20187;-63
2021/01/09 04:09:56;;;;;;;13.63;6.93;;;0.40;99.90;;;;;;5073779;28;20229;-62
2021/01/09 04:12:23;;;;;;;11.03;6.70;;;0.40;99.90;;;;;;5073314;28;20294;-63
2021/01/09 04:14:49;;;;;;;12.63;6.43;;;0.50;99.90;;;;;;5073466;28;20249;-62
2021/01/09 04:17:16;;;;;;;10.10;6.43;;;0.50;99.90;;;;;;5073191;28;20334;-62
2021/01/09 04:19:42;;;;;;;14.23;6.10;;;0.50;99.90;;;;;;5073335;28;20647;-64
2021/01/09 04:22:09;;;;;;;14.83;7.03;;;0.40;99.90;;;;;;5073048;28;20648;-63
2021/01/09 04:24:36;;;;;;;10.10;6.10;;;0.50;99.90;;;;;;5073064;28;20253;-63
2021/01/09 04:27:04;;;;;;;11.10;6.27;;;0.40;99.90;;;;;;5072707;28;20683;-63
2021/01/09 04:29:31;;;;;;;11.33;6.77;;;0.40;99.90;;;;;;5073518;28;20658;-64
2021/01/09 04:31:58;;;;;;;9.73;6.27;;;0.40;99.90;;;;;;5072676;28;20332;-63
2021/01/09 04:34:26;;;;;;;11.60;6.53;;;0.50;99.90;;;;;;5072553;28;20230;-64
2021/01/09 04:36:53;;;;;;;10.97;6.50;;;0.50;99.90;;;;;;5072497;28;20346;-63
2021/01/09 04:39:20;;;;;;;11.80;7.10;;;0.40;99.90;;;;;;5072837;28;20215;-63
2021/01/09 04:41:48;;;;;;;11.33;6.03;;;0.50;99.90;;;;;;5073221;28;20261;-62
2021/01/09 04:44:15;;;;;;;11.23;6.17;;;0.50;99.90;;;;;;5073146;28;20313;-63
2021/01/09 04:46:50;;;;;;;13.77;6.27;;;0.50;99.90;;;;;;5073010;28;20237;-63
2021/01/09 04:49:17;;;;;;;9.87;5.70;;;0.50;99.90;;;;;;5072393;28;20182;-63
2021/01/09 04:51:44;;;;;;;12.83;6.37;;;0.40;99.90;;;;;;5073291;28;20234;-63
2021/01/09 04:54:15;;;;;;;11.20;6.33;;;0.50;99.90;;;;;;5072536;28;20237;-64
2021/01/09 04:56:44;;;;;;;10.57;5.83;;;0.50;99.90;;;;;;5072236;28;20293;-62
2021/01/09 04:59:12;;;;;;;10.30;6.10;;;0.50;99.90;;;;;;5072506;28;20232;-63
2021/01/09 05:01:39;;;;;;;10.87;6.23;;;0.50;99.90;;;;;;5072303;28;20183;-62
2021/01/09 05:04:06;;;;;;;10.73;5.77;;;0.50;99.90;;;;;;5052792;28;20600;-64
2021/01/09 05:06:33;;;;;;;9.80;5.93;;;0.40;99.90;;;;;;5062245;28;20206;-62
2021/01/09 05:08:59;;;;;;;12.03;5.70;;;0.50;99.90;;;;;;5072546;28;20199;-62
2021/01/09 05:11:25;;;;;;;11.93;6.20;;;0.50;99.90;;;;;;5072319;28;20230;-62
2021/01/09 05:13:52;;;;;;;11.03;5.63;;;0.50;99.90;;;;;;5072086;28;20651;-62
2021/01/09 05:16:20;;;;;;;9.87;5.80;;;0.40;99.90;;;;;;5072445;28;20624;-62
2021/01/09 05:18:46;;;;;;;12.10;5.90;;;0.40;99.90;;;;;;5072294;28;20278;-61
2021/01/09 05:21:14;;;;;;;9.93;5.63;;;0.40;99.90;;;;;;5071916;28;20614;-61
2021/01/09 05:23:50;;;;;;;11.40;6.27;;;0.40;99.90;;;;;;5072074;28;20246;-64
2021/01/09 05:26:18;;;;;;;11.63;6.30;;;0.50;99.90;;;;;;5072096;28;20678;-63
2021/01/09 05:28:48;;;;;;;10.97;6.23;;;0.50;99.90;;;;;;5072392;28;20222;-63
2021/01/09 05:31:15;;;;;;;9.80;5.40;;;0.50;99.90;;;;;;5052311;28;20234;-61
2021/01/09 05:33:43;;;;;;;10.77;5.57;;;0.40;99.90;;;;;;5053858;28;20270;-64
2021/01/09 05:36:10;;;;;;;11.30;5.90;;;0.40;99.90;;;;;;5072085;28;20309;-62
2021/01/09 05:38:38;;;;;;;9.10;5.73;;;0.40;99.90;;;;;;5072244;28;20256;-62
2021/01/09 05:41:06;;;;;;;13.83;6.03;;;0.40;99.90;;;;;;5071763;28;20674;-62
2021/01/09 05:43:32;;;;;;;11.23;6.33;;;0.40;99.90;;;;;;5072111;28;20227;-63
2021/01/09 05:45:59;;;;;;;13.10;5.93;;;0.50;99.90;;;;;;5071607;28;20241;-62
2021/01/09 05:48:26;;;;;;;10.93;5.13;;;0.40;99.90;;;;;;5071980;28;20282;-63
2021/01/09 05:50:55;;;;;;;8.83;5.20;;;0.50;99.90;;;;;;5070589;28;20781;-62
2021/01/09 05:53:43;;;;;;;9.10;5.60;;;0.50;99.90;;;;;;5070981;28;20218;-63
2021/01/09 05:56:11;;;;;;;8.00;5.50;;;0.40;99.90;;;;;;5071655;28;20218;-63
2021/01/09 05:58:38;;;;;;;9.93;6.10;;;0.50;99.90;;;;;;5071340;28;20218;-65
2021/01/09 06:01:07;;;;;;;10.47;5.90;;;0.40;99.90;;;;;;5071285;28;20226;-63
2021/01/09 06:03:41;;;;;;;13.17;5.97;;;0.40;99.90;;;;;;5070825;28;20336;-62
2021/01/09 06:06:28;;;;;;;11.17;6.00;;;0.40;99.90;;;;;;5071598;28;20637;-65
2021/01/09 06:08:58;;;;;;;9.10;5.70;;;0.40;99.90;;;;;;5071545;28;20239;-62
2021/01/09 06:11:31;;;;;;;10.77;6.20;;;0.40;99.90;;;;;;5072125;28;20183;-64
2021/01/09 06:14:00;;;;;;;10.67;5.93;;;0.40;99.90;;;;;;5071313;28;20322;-64
2021/01/09 06:16:30;;;;;;;9.70;5.47;;;0.40;99.90;;;;;;5070359;28;20221;-65
2021/01/09 06:18:57;;;;;;;11.67;5.73;;;0.40;99.90;;;;;;5071209;28;20193;-63
2021/01/09 06:21:25;;;;;;;10.60;5.30;;;0.30;99.90;;;;;;5071275;28;20191;-63
2021/01/09 06:23:54;;;;;;;10.00;5.97;;;0.30;99.90;;;;;;5071219;28;20236;-65
2021/01/09 06:26:22;;;;;;;8.07;5.33;;;0.30;99.90;;;;;;5071764;28;20205;-63
2021/01/09 06:28:51;;;;;;;8.90;5.13;;;0.30;99.90;;;;;;5071131;28;20202;-62
2021/01/09 06:31:22;;;;;;;8.03;5.17;;;0.30;99.90;;;;;;5071241;28;20272;-62
2021/01/09 06:33:50;;;;;;;9.87;5.83;;;0.30;99.90;;;;;;5071609;28;20230;-66
2021/01/09 06:36:18;;;;;;;9.07;5.73;;;0.30;99.90;;;;;;5071533;28;20222;-63
2021/01/09 06:38:48;;;;;;;11.97;5.43;;;0.30;99.90;;;;;;5071450;28;20195;-64
2021/01/09 06:41:16;;;;;;;9.43;5.63;;;0.30;99.90;;;;;;5070641;28;20238;-62
2021/01/09 06:43:45;;;;;;;10.20;5.53;;;0.20;99.90;;;;;;5071046;28;20214;-62
2021/01/09 06:46:13;;;;;;;8.67;4.90;;;0.30;99.90;;;;;;5071140;28;20607;-63
2021/01/09 06:48:45;;;;;;;10.03;6.03;;;0.30;99.90;;;;;;5070525;28;20674;-63
2021/01/09 06:51:54;;;;;;;9.80;5.67;;;0.30;99.90;;;;;;5070987;28;20704;-62
2021/01/09 06:54:26;;;;;;;10.37;5.60;;;0.30;99.90;;;;;;5066690;28;20191;-63
2021/01/09 06:57:09;;;;;;;10.07;5.60;;;0.30;99.90;;;;;;5071136;28;20221;-63
2021/01/09 06:59:37;;;;;;;9.73;5.27;;;0.30;99.90;;;;;;5070642;28;20194;-63
2021/01/09 07:02:14;;;;;;;9.07;5.43;;;0.30;99.90;;;;;;5070922;28;20558;-63
2021/01/09 07:05:01;;;;;;;10.37;5.53;;;0.30;99.90;;;;;;5070795;28;20218;-62
2021/01/09 07:07:35;;;;;;;12.17;5.93;;;0.20;99.90;;;;;;5071416;28;20206;-64
2021/01/09 07:10:22;;;;;;;9.70;5.23;;;0.30;99.90;;;;;;5071307;28;20520;-63
2021/01/09 07:12:52;;;;;;;8.77;5.47;;;0.30;99.90;;;;;;5070898;28;20229;-64
2021/01/09 07:15:19;;;;;;;12.00;6.40;;;0.30;99.90;;;;;;5071743;28;20238;-62
2021/01/09 07:17:51;;;;;;;10.27;5.60;;;0.20;99.90;;;;;;5070868;28;20272;-62
2021/01/09 07:20:20;;;;;;;9.87;5.30;;;0.20;99.90;;;;;;5070764;28;20209;-64
2021/01/09 07:22:49;;;;;;;9.70;5.13;;;0.20;99.90;;;;;;5071056;28;20599;-64
2021/01/09 07:25:28;;;;;;;9.23;4.90;;;0.20;99.90;;;;;;5070881;28;20207;-62
2021/01/09 07:27:57;;;;;;;12.13;5.50;;;0.20;99.90;;;;;;5072537;28;20187;-62
2021/01/09 07:30:24;;;;;;;11.37;5.63;;;0.20;99.90;;;;;;5074321;28;20218;-61
2021/01/09 07:32:52;;;;;;;8.90;5.67;;;0.20;99.90;;;;;;5078070;28;20205;-63
2021/01/09 07:35:24;;;;;;;10.73;5.60;;;0.20;99.90;;;;;;5074227;28;20670;-62
2021/01/09 07:37:56;;;;;;;10.30;5.40;;;0.10;99.90;;;;;;5074629;28;20298;-62
2021/01/09 07:40:25;;;;;;;9.57;5.70;;;0.10;99.90;;;;;;5074435;28;20206;-65
2021/01/09 07:42:51;;;;;;;11.10;5.50;;;0.20;99.90;;;;;;5073954;28;20563;-63
2021/01/09 07:45:20;;;;;;;11.30;6.30;;;0.10;99.90;;;;;;5074175;28;20227;-64
2021/01/09 07:47:47;;;;;;;11.73;5.63;;;0.10;99.90;;;;;;5073490;28;20552;-64
2021/01/09 07:50:16;;;;;;;10.40;5.90;;;0.10;99.90;;;;;;5073967;28;20308;-64
2021/01/09 07:52:43;;;;;;;11.37;6.33;;;0.10;99.90;;;;;;5074807;28;20269;-64
2021/01/09 07:55:14;;;;;;;10.13;5.90;;;0.10;99.90;;;;;;5074181;28;20217;-63
2021/01/09 07:57:42;;;;;;;12.10;6.37;;;0.10;99.90;;;;;;5073571;28;20691;-67
2021/01/09 08:00:15;;;;;;;11.57;6.43;;;0.10;99.90;;;;;;5074398;28;20560;-62
2021/01/09 08:02:42;;;;;;;8.97;5.67;;;0.20;99.90;;;;;;5073945;28;20193;-67
2021/01/09 08:05:13;;;;;;;12.07;6.07;;;0.10;99.90;;;;;;5073470;28;20199;-63
2021/01/09 08:07:42;;;;;;;9.87;5.97;;;0.10;99.90;;;;;;5073742;28;20225;-63
2021/01/09 08:10:24;;;;;;;12.47;6.40;;;0.10;99.90;;;;;;5073850;28;20270;-64
2021/01/09 08:12:57;;;;;;;9.97;5.77;;;0.20;99.90;;;;;;5073879;28;20219;-64
2021/01/09 08:15:25;;;;;;;9.90;5.47;;;0.20;99.90;;;;;;5073817;28;20226;-67
2021/01/09 08:17:52;;;;;;;10.23;6.07;;;0.20;99.90;;;;;;5073405;28;20218;-63
2021/01/09 08:20:18;;;;;;;10.00;6.10;;;0.20;99.90;;;;;;5073389;28;20273;-64
2021/01/09 08:22:50;;;;;;;8.83;5.60;;;0.20;99.90;;;;;;5073231;28;20225;-63
2021/01/09 08:25:17;;;;;;;11.53;6.33;;;0.10;99.90;;;;;;5072805;28;20650;-63
2021/01/09 08:27:45;;;;;;;11.27;5.77;;;0.20;99.90;;;;;;5073348;28;20198;-62
2021/01/09 08:30:16;;;;;;;11.07;5.73;;;0.10;99.90;;;;;;5073202;28;20320;-62
2021/01/09 08:32:43;;;;;;;10.83;5.60;;;0.20;99.90;;;;;;5073930;28;20293;-63
2021/01/09 08:35:10;;;;;;;10.77;5.80;;;0.20;99.90;;;;;;5073409;28;20199;-65
2021/01/09 08:37:38;;;;;;;11.67;6.53;;;0.20;99.90;;;;;;5072396;28;20440;-65
2021/01/09 08:40:12;;;;;;;9.80;5.87;;;0.20;99.90;;;;;;5073117;28;20269;-65
2021/01/09 08:42:38;;;;;;;8.67;5.10;;;0.20;99.90;;;;;;5073351;28;20237;-64
2021/01/09 08:45:06;;;;;;;11.77;5.77;;;0.20;99.90;;;;;;5073115;28;20210;-65
2021/01/09 08:47:34;;;;;;;10.67;5.90;;;0.20;99.90;;;;;;5073163;28;20286;-62
2021/01/09 08:50:03;;;;;;;6.93;4.87;;;0.20;99.90;;;;;;5072804;28;20214;-63
2021/01/09 08:52:32;;;;;;;10.50;5.93;;;0.20;99.90;;;;;;5072459;28;20657;-66
2021/01/09 08:55:00;;;;;;;10.77;5.37;;;0.20;99.90;;;;;;5073146;28;20275;-62
2021/01/09 08:57:27;;;;;;;9.13;5.50;;;0.20;99.90;;;;;;5072757;28;20310;-64
2021/01/09 08:59:54;;;;;;;10.47;5.73;;;0.20;99.90;;;;;;5072790;28;20183;-65
2021/01/09 09:02:22;;;;;;;10.80;5.40;;;0.30;99.90;;;;;;5073131;28;20232;-66
2021/01/09 09:04:52;;;;;;;9.57;5.40;;;0.20;99.90;;;;;;5072486;28;20277;-65
2021/01/09 09:07:21;;;;;;;9.70;6.10;;;0.20;99.90;;;;;;5072992;28;20194;-64
2021/01/09 09:09:48;;;;;;;8.77;4.87;;;0.30;99.90;;;;;;5073064;28;20191;-64
2021/01/09 09:12:24;;;;;;;10.00;5.63;;;0.20;99.90;;;;;;5072461;28;20195;-64
2021/01/09 09:14:57;;;;;;;10.97;5.67;;;0.30;99.90;;;;;;5072062;28;20183;-64
2021/01/09 09:17:25;;;;;;;10.57;5.60;;;0.30;99.90;;;;;;5072464;28;20254;-64
2021/01/09 09:19:52;;;;;;;8.00;5.37;;;0.30;99.90;;;;;;5071982;28;20202;-64
2021/01/09 09:22:29;;;;;;;9.50;5.53;;;0.30;99.90;;;;;;5072000;28;20218;-62
2021/01/09 09:24:55;;;;;;;8.30;5.33;;;0.30;99.90;;;;;;5071649;28;20183;-63
2021/01/09 09:27:26;;;;;;;10.70;5.60;;;0.30;99.90;;;;;;5071197;28;20650;-65
2021/01/09 09:30:09;;;;;;;10.27;5.47;;;0.40;99.90;;;;;;5072038;28;20253;-65
2021/01/09 09:32:36;;;;;;;8.60;5.60;;;0.40;99.90;;;;;;5071425;28;20225;-64
2021/01/09 09:35:23;;;;;;;10.27;5.60;;;0.40;99.90;;;;;;5071690;28;20215;-63
2021/01/09 09:37:51;;;;;;;9.23;5.50;;;0.40;99.90;;;;;;5060701;28;20421;-63
2021/01/09 09:40:23;;;;;;;9.90;5.03;;;0.40;99.90;;;;;;5053087;28;20260;-61
2021/01/09 09:42:49;;;;;;;9.33;5.53;;;0.40;99.90;;;;;;5071416;28;20270;-62
2021/01/09 09:45:17;;;;;;;9.20;5.40;;;0.40;99.90;;;;;;5071719;28;20284;-62
2021/01/09 09:47:47;;;;;;;10.70;5.83;;;0.40;99.90;;;;;;5071553;28;20289;-63
2021/01/09 09:50:18;;;;;;;8.40;4.90;;;0.50;99.90;;;;;;5071072;28;20231;-63
2021/01/09 09:52:55;;;;;;;9.30;5.30;;;0.50;99.90;;;;;;5071810;28;20554;-63
2021/01/09 09:55:24;;;;;;;9.80;5.27;;;0.50;99.90;;;;;;5071634;28;20657;-63
2021/01/09 09:58:07;;;;;;;8.10;5.13;;;0.50;99.90;;;;;;5070119;28;20222;-65
2021/01/09 10:00:41;;;;;;;11.03;5.30;;;0.40;99.90;;;;;;5070694;28;20293;-62
2021/01/09 10:03:07;;;;;;;7.70;5.40;;;0.50;99.90;;;;;;5071749;28;20223;-64
2021/01/09 10:05:34;;;;;;;9.80;5.83;;;0.40;99.90;;;;;;5071485;28;20620;-63
2021/01/09 10:08:12;;;;;;;9.87;5.67;;;0.40;99.90;;;;;;5071693;28;20198;-61
2021/01/09 10:10:39;;;;;;;9.37;5.30;;;0.40;99.90;;;;;;5070987;28;20287;-62
2021/01/09 10:13:05;;;;;;;9.60;5.53;;;0.40;99.90;;;;;;5071545;28;20283;-66
2021/01/09 10:15:32;;;;;;;11.53;6.03;;;0.50;99.90;;;;;;5066172;28;20285;-63
2021/01/09 10:18:00;;;;;;;9.67;5.60;;;0.50;99.90;;;;;;5066301;28;20309;-64
2021/01/09 10:20:27;;;;;;;10.90;5.87;;;0.40;99.90;;;;;;5071793;28;20182;-62
2021/01/09 10:22:54;;;;;;;11.17;6.07;;;0.40;99.90;;;;;;5071327;28;20226;-65
2021/01/09 10:25:21;;;;;;;8.07;5.17;;;0.50;99.90;;;;;;5071466;28;20629;-64
2021/01/09 10:27:51;;;;;;;10.67;5.13;;;0.50;99.90;;;;;;5063841;28;20635;-65
2021/01/09 10:30:18;;;;;;;10.20;5.30;;;0.40;99.90;;;;;;5058317;28;20245;-63
2021/01/09 10:32:44;;;;;;;10.47;5.57;;;0.40;99.90;;;;;;5071417;28;20218;-66
2021/01/09 10:35:11;;;;;;;9.50;5.97;;;0.40;99.90;;;;;;5071542;28;20198;-64
2021/01/09 10:37:39;;;;;;;10.97;5.50;;;0.40;99.90;;;;;;5068913;28;20263;-64
2021/01/09 10:40:07;;;;;;;9.97;5.73;;;0.50;99.90;;;;;;5071835;28;20604;-61
2021/01/09 10:42:34;;;;;;;7.87;5.40;;;0.50;99.90;;;;;;5071564;28;20669;-62
2021/01/09 10:45:01;;;;;;;8.90;5.40;;;0.50;99.90;;;;;;5089616;28;20191;-64
2021/01/09 10:47:27;;;;;;;8.53;4.97;;;0.50;99.90;;;;;;5069393;28;20198;-63
2021/01/09 10:49:53;;;;;;;9.77;5.70;;;0.50;99.90;;;;;;5070193;28;20715;-63
2021/01/09 10:52:20;;;;;;;9.87;5.90;;;0.50;99.90;;;;;;5071799;28;20218;-64
2021/01/09 10:54:46;;;;;;;13.47;6.20;;;0.50;99.90;;;;;;5064945;28;20218;-62
2021/01/09 10:57:13;;;;;;;8.93;5.27;;;0.50;99.90;;;;;;5071192;28;20215;-62
2021/01/09 10:59:41;;;;;;;9.13;5.17;;;0.50;99.90;;;;;;5068190;28;20312;-62
2021/01/09 11:02:08;;;;;;;11.80;5.70;;;0.50;99.90;;;;;;5092572;28;20317;-63
2021/01/09 11:04:34;;;;;;;10.33;5.80;;;0.50;99.90;;;;;;5074854;28;20626;-64
2021/01/09 11:07:01;;;;;;;11.60;5.70;;;0.50;99.90;;;;;;5074945;28;20241;-62
2021/01/09 11:09:27;;;;;;;10.63;5.93;;;0.50;99.90;;;;;;5074871;28;20190;-65
2021/01/09 11:11:54;;;;;;;9.00;5.70;;;0.60;99.90;;;;;;5074739;28;20282;-61
2021/01/09 11:14:21;;;;;;;11.13;5.87;;;0.60;99.90;;;;;;5074962;28;20241;-62
2021/01/09 11:16:53;;;;;;;9.80;5.93;;;0.50;99.90;;;;;;5073936;28;20247;-64
2021/01/09 11:19:20;;;;;;;11.87;5.97;;;0.60;99.90;;;;;;5086103;28;20555;-65
2021/01/09 11:21:46;;;;;;;9.93;5.70;;;0.50;99.90;;;;;;5074185;28;20218;-62
2021/01/09 11:24:13;;;;;;;8.63;5.07;;;0.40;99.90;;;;;;5083312;28;20266;-66
2021/01/09 11:26:39;;;;;;;8.90;5.17;;;0.40;99.90;;;;;;5074562;28;20230;-64
2021/01/09 11:29:06;;;;;;;10.90;6.27;;;0.30;99.90;;;;;;5074089;28;20616;-62
2021/01/09 11:31:32;;;;;;;10.57;5.73;;;0.40;99.90;;;;;;5065840;28;20659;-64
2021/01/09 11:34:00;;;;;;;8.90;5.50;;;0.30;99.90;;;;;;5060882;28;20305;-64
2021/01/09 11:36:27;;;;;;;9.97;5.37;;;0.30;99.90;;;;;;5073844;28;20246;-64
2021/01/09 11:38:53;;;;;;;10.73;5.93;;;0.30;99.90;;;;;;5073864;28;20635;-62
2021/01/09 11:41:19;;;;;;;9.50;5.77;;;0.40;99.90;;;;;;5073960;28;20278;-67
2021/01/09 11:43:46;;;;;;;10.30;5.50;;;0.30;99.90;;;;;;5074325;28;20195;-63
2021/01/09 11:46:12;;;;;;;8.10;5.10;;;0.30;99.90;;;;;;5073596;28;20223;-66
2021/01/09 12:01:00;;;;;;;9.57;6.07;;;0.30;99.90;;;;;;5090520;27;21076;-62
2021/01/09 12:03:27;;;;;;;11.50;6.60;;;0.30;99.90;;;;;;5088912;28;20240;-68
2021/01/09 12:05:53;;;;;;;8.97;5.77;;;0.30;99.90;;;;;;5089081;28;20218;-60
2021/01/09 12:08:19;;;;;;;12.30;6.33;;;0.40;99.90;;;;;;5088711;28;20224;-63
2021/01/09 12:10:46;;;;;;;11.07;6.43;;;0.30;99.90;;;;;;5088699;28;20226;-65
2021/01/09 12:13:12;;;;;;;9.00;6.60;;;0.40;99.90;;;;;;5088703;28;20606;-66
2021/01/09 12:15:38;;;;;;;9.77;6.40;;;0.30;99.90;;;;;;5089233;28;20230;-63
2021/01/09 12:18:06;;;;;;;11.37;6.73;;;0.40;99.90;;;;;;5088487;28;20288;-64
2021/01/09 12:20:34;;;;;;;13.73;6.80;;;0.40;99.90;;;;;;5088923;28;20228;-63
2021/01/09 12:23:01;;;;;;;12.33;6.77;;;0.40;99.90;;;;;;5089094;28;20273;-64
2021/01/09 12:25:27;;;;;;;10.97;6.67;;;0.40;99.90;;;;;;5088271;28;20226;-64
2021/01/09 12:27:54;;;;;;;11.17;6.30;;;0.40;99.90;;;;;;5087622;28;20225;-61
2021/01/09 12:30:21;;;;;;;13.93;6.73;;;0.40;99.90;;;;;;5088569;28;20322;-64
2021/01/09 12:32:47;;;;;;;12.10;6.40;;;0.40;99.90;;;;;;5088944;28;20189;-62
2021/01/09 12:35:14;;;;;;;10.40;6.13;;;0.30;99.90;;;;;;5087913;28;20282;-62
2021/01/09 12:37:41;;;;;;;11.67;6.93;;;0.30;99.90;;;;;;5087533;28;20678;-64
2021/01/09 12:40:08;;;;;;;12.10;7.13;;;0.40;99.90;;;;;;5088514;28;20230;-63
2021/01/09 12:42:35;;;;;;;13.40;7.03;;;0.30;99.90;;;;;;5088110;28;20186;-65
2021/01/09 12:45:01;;;;;;;12.27;7.17;;;0.30;99.90;;;;;;5088107;28;20218;-65
2021/01/09 12:47:27;;;;;;;13.07;6.90;;;0.30;99.90;;;;;;5088689;28;20616;-67
2021/01/09 12:49:54;;;;;;;12.23;7.07;;;0.30;99.90;;;;;;5088133;28;20299;-64
2021/01/09 12:52:21;;;;;;;11.43;6.53;;;0.30;99.90;;;;;;5088106;28;20221;-63
2021/01/09 12:54:48;;;;;;;11.90;6.77;;;0.30;99.90;;;;;;5087920;28;20229;-62
2021/01/09 12:57:14;;;;;;;11.17;5.90;;;0.40;99.90;;;;;;5087710;28;20263;-66
2021/01/09 12:59:41;;;;;;;9.60;6.07;;;0.30;99.90;;;;;;5087631;28;20266;-65
2021/01/09 13:02:07;;;;;;;13.50;7.53;;;0.30;99.90;;;;;;5074273;28;20233;-65
2021/01/09 13:04:33;;;;;;;13.03;6.77;;;0.30;99.90;;;;;;5074227;28;20244;-65
2021/01/09 13:07:01;;;;;;;11.20;6.43;;;0.40;99.90;;;;;;5074505;28;20202;-64
2021/01/09 13:09:29;;;;;;;11.27;6.40;;;0.40;99.90;;;;;;5074490;28;20215;-63